الصفحة الرئيسية
METAR-TAF:

METAR-TAF

مطار :

فور دو فرانس, مارتينيك

دائرة عرض: 14-36N, خط طول: 061-00W, ارتفاع: 5 متر

مراقبة الطقس الحالي

تاريخ ووقت الإصدار 37 دقيقة قبل الساعة 09:00UTC
ريح 8 عقدة من الشرق
درجة الحرارة 24°درجة مئوية
الرطوبة 89%
ضغط 1017 hPa
الرؤية 10 كم أو أكثر
غيوم قليلة على ارتفاع 2500 قدم
غيوم متفرقة على ارتفاع 6200 قدم
غيوم مفككة على ارتفاع 9200 قدم

METAR: TFFF 140900Z AUTO 09008KT 9999 FEW025 SCT062 BKN092 24/22 Q1017

زمن: 05:37 (09:37 UTC)

توقعات

تاريخ ووقت الإصدار 28ساعات و 37 دقيقة قبل الساعة 05:00UTC
التوقعات صالحة من13 الساعة 06 UTC إلى 14 الساعة 06 UTC
ريح 12 عقدة من الشرق/الجنوب الشرقي
الرؤية 10 كم أو أكثر
غيوم متفرقة على ارتفاع 3000 قدم
غيوم مفككة على ارتفاع 3500 قدم
مؤقت
من 13 الساعة 06 UTC إلى 13 الساعة 09 UTC
الرؤية: 4000 متر
غيوم مفككة على ارتفاع 1800 قدم, مزن ركامية عمودية.
زخات من المطر
مؤقت
من 14 الساعة 00 UTC إلى 14 الساعة 06 UTC
الرؤية: 4000 متر
غيوم مفككة على ارتفاع 1800 قدم, مزن ركامية عمودية.
زخات من المطر

TAF: TFFF 130500Z 1306/1406 11012KT 9999 SCT030 BKN035 TEMPO 1306/1309 4000 SHRA BKN018TCU TEMPO 1400/1406 4000 SHRA BKN018TCU

أرصاد الطقس والتوقعات من أكثر من 4000 مطار (تقارير الطقس للمطار METAR والتنبؤ بالطقس بالمطارTAF).

المحطات المتاحة هي النقط الصفراء والحمراء على الخريطة.

حرك المؤشر فوق النقطة لمعرفة اسم المحطة.

ثم انقر لمعرفة أرصاد وتوقعات الطقس.

لتغيير الخارطة: اضغط على الأزرار الخضراء مع رمز الصليب الأسود للتكبير. على الزر الأخضر مع شرطة للتصغير، أو على الأسهم الخضراء للخرائط المجاورة.


METAR-TAF: